createdAt,value
2018-01-16T00:00:16.745Z,22.53
2018-01-16T00:02:44.253Z,22.90
2018-01-16T00:05:11.800Z,26.00
2018-01-16T00:07:39.350Z,23.90
2018-01-16T00:10:06.856Z,25.93
2018-01-16T00:12:34.364Z,22.33
2018-01-16T00:15:01.872Z,24.47
2018-01-16T00:17:29.380Z,24.13
2018-01-16T00:19:56.892Z,24.07
2018-01-16T00:22:36.289Z,24.13
2018-01-16T00:25:03.881Z,23.17
2018-01-16T00:27:31.387Z,28.57
2018-01-16T00:29:58.901Z,25.27
2018-01-16T00:32:26.417Z,28.53
2018-01-16T00:34:53.925Z,28.40
2018-01-16T00:37:21.476Z,23.50
2018-01-16T00:39:49.032Z,24.07
2018-01-16T00:42:16.554Z,23.93
2018-01-16T00:44:44.064Z,22.43
2018-01-16T00:47:11.592Z,24.60
2018-01-16T00:49:39.104Z,22.57
2018-01-16T00:52:06.613Z,25.50
2018-01-16T00:54:34.132Z,23.07
2018-01-16T00:57:01.643Z,22.50
2018-01-16T00:59:29.196Z,23.63
2018-01-16T01:01:56.700Z,24.40
2018-01-16T01:04:24.211Z,21.87
2018-01-16T01:06:51.732Z,23.43
2018-01-16T01:09:19.341Z,24.50
2018-01-16T01:11:46.852Z,23.63
2018-01-16T01:14:14.377Z,24.90
2018-01-16T01:16:41.890Z,26.37
2018-01-16T01:19:09.400Z,24.50
2018-01-16T01:21:36.937Z,23.30
2018-01-16T01:24:04.455Z,24.73
2018-01-16T01:26:31.980Z,21.80
2018-01-16T01:28:59.490Z,24.47
2018-01-16T01:31:27.029Z,23.77
2018-01-16T01:33:54.538Z,24.97
2018-01-16T01:36:22.092Z,23.77
2018-01-16T01:38:49.652Z,26.17
2018-01-16T01:41:17.167Z,24.30
2018-01-16T01:43:44.676Z,26.70
2018-01-16T01:46:12.205Z,25.47
2018-01-16T01:48:39.729Z,22.67
2018-01-16T01:51:07.243Z,23.77
2018-01-16T01:53:34.747Z,22.40
2018-01-16T01:56:02.367Z,23.30
2018-01-16T01:58:29.919Z,23.53
2018-01-16T02:00:57.494Z,21.40
2018-01-16T02:03:25.004Z,23.77
2018-01-16T02:05:52.520Z,21.87
2018-01-16T02:08:20.037Z,21.70
2018-01-16T02:10:47.587Z,22.20
2018-01-16T02:13:15.088Z,27.37
2018-01-16T02:15:42.617Z,21.33
2018-01-16T02:18:10.134Z,21.73
2018-01-16T02:20:37.665Z,20.50
2018-01-16T02:23:05.211Z,24.03
2018-01-16T02:25:32.716Z,20.63
2018-01-16T02:28:00.244Z,21.23
2018-01-16T02:30:27.756Z,20.40
2018-01-16T02:32:55.288Z,20.00
2018-01-16T02:35:22.808Z,22.10
2018-01-16T02:37:50.313Z,20.43
2018-01-16T02:40:17.835Z,19.67
2018-01-16T02:42:45.401Z,22.50
2018-01-16T02:45:12.919Z,17.97
2018-01-16T02:47:40.436Z,19.90
2018-01-16T02:50:07.953Z,19.03
2018-01-16T02:52:35.484Z,18.43
2018-01-16T02:55:02.995Z,20.47
2018-01-16T02:57:30.512Z,19.13
2018-01-16T02:59:58.040Z,15.37
2018-01-16T03:02:25.555Z,17.50
2018-01-16T03:04:53.062Z,16.33
2018-01-16T03:07:20.588Z,16.27
2018-01-16T03:09:48.135Z,14.57
2018-01-16T03:12:15.641Z,15.60
2018-01-16T03:14:43.152Z,18.00
2018-01-16T03:17:10.657Z,13.70
2018-01-16T03:19:38.165Z,15.90
2018-01-16T03:22:05.667Z,15.10
2018-01-16T03:24:33.292Z,14.20
2018-01-16T03:27:00.801Z,15.07
2018-01-16T03:29:28.308Z,13.87
2018-01-16T03:31:55.891Z,13.60
2018-01-16T03:34:23.469Z,14.70
2018-01-16T03:36:50.978Z,14.67
2018-01-16T03:39:18.544Z,14.63
2018-01-16T03:41:46.112Z,14.77
2018-01-16T03:44:13.624Z,14.37
2018-01-16T03:46:41.135Z,15.43
2018-01-16T03:49:08.641Z,13.03
2018-01-16T03:51:36.156Z,14.23
2018-01-16T03:54:03.670Z,12.67
2018-01-16T03:56:31.189Z,15.23
2018-01-16T03:58:58.701Z,12.63
2018-01-16T04:01:26.215Z,12.87
2018-01-16T04:03:53.725Z,12.47
2018-01-16T04:06:21.236Z,12.23
2018-01-16T04:08:48.741Z,12.27
2018-01-16T04:11:16.252Z,13.17
2018-01-16T04:13:43.759Z,13.90
2018-01-16T04:16:11.263Z,12.10
2018-01-16T04:18:38.756Z,12.07
2018-01-16T04:21:06.294Z,12.70
2018-01-16T04:23:33.800Z,12.17
2018-01-16T04:26:01.390Z,12.40
2018-01-16T04:28:28.906Z,12.47
2018-01-16T04:30:56.403Z,12.47
2018-01-16T04:33:23.908Z,13.13
2018-01-16T04:35:51.475Z,11.40
2018-01-16T04:38:19.011Z,11.57
2018-01-16T04:40:46.515Z,11.93
2018-01-16T04:43:14.049Z,13.03
2018-01-16T04:45:41.642Z,11.43
2018-01-16T04:48:09.148Z,13.57
2018-01-16T04:50:36.643Z,10.93
2018-01-16T04:53:04.148Z,12.43
2018-01-16T04:55:31.662Z,12.93
2018-01-16T04:57:59.216Z,11.00
2018-01-16T05:00:26.754Z,14.27
2018-01-16T05:02:54.269Z,11.97
2018-01-16T05:05:21.789Z,13.23
2018-01-16T05:07:49.320Z,12.80
2018-01-16T05:10:16.832Z,11.60
2018-01-16T05:12:44.413Z,12.53
2018-01-16T05:15:11.920Z,11.23
2018-01-16T05:17:39.528Z,11.53
2018-01-16T05:20:07.043Z,12.03
2018-01-16T05:22:34.561Z,12.77
2018-01-16T05:25:02.109Z,11.43
2018-01-16T05:27:29.616Z,11.57
2018-01-16T05:29:57.123Z,11.77
2018-01-16T05:32:24.637Z,13.17
2018-01-16T05:34:52.247Z,13.00
2018-01-16T05:37:19.756Z,13.07
2018-01-16T05:39:47.288Z,10.77
2018-01-16T05:42:14.793Z,11.20
2018-01-16T05:44:42.380Z,10.67
2018-01-16T05:47:09.880Z,10.50
2018-01-16T05:49:37.403Z,11.33
2018-01-16T05:52:04.913Z,12.97
2018-01-16T05:54:32.437Z,12.93
2018-01-16T05:56:59.941Z,10.93
2018-01-16T05:59:27.454Z,11.17
2018-01-16T06:01:54.954Z,12.10
2018-01-16T06:04:22.476Z,14.77
2018-01-16T06:06:49.981Z,11.80
2018-01-16T06:09:17.504Z,10.77
2018-01-16T06:11:45.017Z,12.10
2018-01-16T06:14:12.524Z,11.30
2018-01-16T06:16:40.033Z,11.90
2018-01-16T06:19:07.597Z,12.03
2018-01-16T06:21:35.160Z,12.40
2018-01-16T06:24:02.673Z,13.30
2018-01-16T06:26:30.292Z,10.10
2018-01-16T06:28:57.802Z,11.17
2018-01-16T06:31:25.313Z,11.83
2018-01-16T06:33:52.869Z,12.03
2018-01-16T06:36:20.411Z,9.80
2018-01-16T06:38:47.923Z,11.53
2018-01-16T06:41:15.427Z,11.47
2018-01-16T06:43:43.006Z,10.67
2018-01-16T06:46:10.511Z,9.33
2018-01-16T06:48:38.134Z,11.60
2018-01-16T06:51:05.688Z,10.03
2018-01-16T06:53:33.230Z,9.87
2018-01-16T06:56:00.741Z,12.70
2018-01-16T06:58:28.364Z,12.53
2018-01-16T07:00:55.957Z,12.33
2018-01-16T07:03:23.487Z,9.90
2018-01-16T07:05:50.997Z,10.27
2018-01-16T07:08:18.515Z,12.23
2018-01-16T07:10:46.026Z,10.23
2018-01-16T07:13:13.532Z,11.93
2018-01-16T07:15:41.053Z,9.53
2018-01-16T07:18:08.595Z,11.73
2018-01-16T07:20:36.200Z,8.90
2018-01-16T07:23:03.700Z,10.77
2018-01-16T07:25:31.325Z,10.00
2018-01-16T07:27:58.878Z,10.90
2018-01-16T07:30:26.429Z,10.83
2018-01-16T07:32:53.940Z,9.57
2018-01-16T07:35:21.462Z,10.37
2018-01-16T07:37:48.973Z,10.07
2018-01-16T07:40:16.563Z,8.47
2018-01-16T07:42:44.079Z,9.53
2018-01-16T07:45:11.697Z,9.63
2018-01-16T07:47:39.210Z,9.13
2018-01-16T07:50:06.721Z,9.67
2018-01-16T07:52:34.231Z,9.50
2018-01-16T07:55:01.823Z,8.20
2018-01-16T07:57:29.329Z,8.23
2018-01-16T07:59:56.945Z,11.07
2018-01-16T08:02:24.446Z,8.43
2018-01-16T08:04:51.948Z,8.63
2018-01-16T08:07:19.498Z,7.50
2018-01-16T08:09:47.076Z,8.57
2018-01-16T08:12:14.589Z,6.93
2018-01-16T08:14:42.210Z,6.77
2018-01-16T08:17:09.725Z,7.90
2018-01-16T08:19:37.274Z,7.10
2018-01-16T08:22:04.881Z,6.63
2018-01-16T08:24:32.387Z,7.63
2018-01-16T08:26:59.911Z,9.77
2018-01-16T08:29:27.431Z,7.90
2018-01-16T08:31:54.963Z,9.70
2018-01-16T08:34:22.456Z,5.87
2018-01-16T08:36:49.960Z,6.87
2018-01-16T08:39:17.466Z,6.07
2018-01-16T08:41:44.965Z,5.00
2018-01-16T08:44:12.472Z,5.10
2018-01-16T08:46:39.964Z,4.80
2018-01-16T08:49:07.469Z,4.80
2018-01-16T08:51:34.972Z,4.90
2018-01-16T08:54:02.485Z,4.57
2018-01-16T08:56:29.986Z,7.37
2018-01-16T08:58:57.532Z,4.77
2018-01-16T09:01:25.061Z,5.80
2018-01-16T09:03:52.565Z,4.10
2018-01-16T09:06:20.069Z,4.00
2018-01-16T09:08:47.576Z,3.50
2018-01-16T09:11:15.160Z,4.20
2018-01-16T09:13:42.660Z,4.27
2018-01-16T09:16:10.159Z,4.40
2018-01-16T09:18:37.675Z,4.33
2018-01-16T09:21:05.183Z,4.13
2018-01-16T09:23:32.701Z,4.80
2018-01-16T09:26:00.332Z,4.17
2018-01-16T09:28:27.837Z,7.13
2018-01-16T09:30:55.346Z,5.27
2018-01-16T09:33:22.862Z,6.60
2018-01-16T09:35:50.393Z,5.30
2018-01-16T09:38:17.904Z,5.03
2018-01-16T09:40:45.406Z,6.23
2018-01-16T09:43:12.909Z,6.73
2018-01-16T09:45:40.420Z,3.90
2018-01-16T09:48:07.958Z,4.40
2018-01-16T09:50:35.460Z,4.37
2018-01-16T09:53:02.957Z,4.67
2018-01-16T09:55:30.531Z,7.67
2018-01-16T09:57:58.093Z,6.00
2018-01-16T10:00:25.596Z,4.53
2018-01-16T10:02:53.200Z,2.63
2018-01-16T10:05:20.704Z,3.67
2018-01-16T10:07:48.218Z,2.67
2018-01-16T10:10:15.780Z,5.50
2018-01-16T10:12:43.282Z,4.50
2018-01-16T10:15:10.814Z,2.53
2018-01-16T10:17:38.340Z,3.20
2018-01-16T10:20:05.851Z,3.90
2018-01-16T10:22:33.345Z,2.43
2018-01-16T10:25:00.861Z,5.07
2018-01-16T10:27:28.362Z,2.80
2018-01-16T10:29:55.885Z,3.20
2018-01-16T10:32:23.396Z,5.23
2018-01-16T10:34:50.905Z,9.30
2018-01-16T10:37:18.542Z,2.63
2018-01-16T10:39:46.054Z,4.03
2018-01-16T10:42:13.574Z,4.10
2018-01-16T10:44:41.089Z,6.23
2018-01-16T10:47:08.608Z,2.83
2018-01-16T10:49:36.104Z,3.57
2018-01-16T10:52:03.620Z,5.40
2018-01-16T10:54:31.676Z,9.07
2018-01-16T10:56:59.189Z,3.53
2018-01-16T10:59:26.697Z,6.57
2018-01-16T11:01:54.235Z,4.40
2018-01-16T11:04:21.728Z,4.60
2018-01-16T11:06:49.224Z,4.40
2018-01-16T11:09:16.744Z,5.33
2018-01-16T11:11:44.270Z,5.00
2018-01-16T11:14:11.775Z,4.53
2018-01-16T11:16:39.282Z,3.57
2018-01-16T11:19:06.780Z,4.43
2018-01-16T11:21:34.283Z,4.00
2018-01-16T11:24:01.883Z,3.00
2018-01-16T11:26:29.383Z,4.33
2018-01-16T11:28:56.985Z,2.63
2018-01-16T11:31:24.481Z,3.90
2018-01-16T11:33:51.988Z,2.63
2018-01-16T11:36:19.569Z,2.33
2018-01-16T11:38:47.068Z,3.50
2018-01-16T11:41:14.559Z,3.57
2018-01-16T11:43:42.135Z,3.53
2018-01-16T11:46:09.642Z,3.50
2018-01-16T11:48:37.154Z,2.53
2018-01-16T11:51:04.718Z,2.47
2018-01-16T11:53:32.212Z,5.67
2018-01-16T11:55:59.849Z,2.30
2018-01-16T11:58:28.532Z,3.37
2018-01-16T12:00:56.037Z,1.90
2018-01-16T12:03:23.548Z,2.67
2018-01-16T12:05:51.072Z,3.33
2018-01-16T12:08:18.581Z,1.30
2018-01-16T12:10:46.084Z,1.70
2018-01-16T12:13:13.622Z,1.40
2018-01-16T12:15:41.130Z,2.83
2018-01-16T12:18:08.665Z,2.30
2018-01-16T12:20:36.201Z,1.40
2018-01-16T12:23:03.695Z,3.23
2018-01-16T12:25:31.268Z,2.50
2018-01-16T12:27:58.834Z,2.07
2018-01-16T12:30:26.408Z,1.70
2018-01-16T12:32:53.912Z,2.43
2018-01-16T12:35:21.409Z,3.50
2018-01-16T12:37:48.924Z,1.43
2018-01-16T12:40:16.445Z,2.72
2018-01-16T12:42:43.952Z,4.73
2018-01-16T12:45:11.560Z,3.67
2018-01-16T12:47:39.104Z,2.17
2018-01-16T12:50:06.604Z,3.97
2018-01-16T12:52:34.104Z,2.67
2018-01-16T12:55:01.618Z,3.03
2018-01-16T12:57:29.163Z,2.03
2018-01-16T12:59:56.661Z,2.53
2018-01-16T13:02:24.169Z,4.50
2018-01-16T13:04:51.736Z,4.07
2018-01-16T13:07:19.246Z,1.43
2018-01-16T13:09:46.853Z,2.47
2018-01-16T13:12:15.231Z,2.60
2018-01-16T13:14:42.746Z,3.07
2018-01-16T13:17:10.247Z,1.97
2018-01-16T13:19:37.740Z,1.83
2018-01-16T13:22:05.371Z,2.77
2018-01-16T13:24:32.929Z,1.50
2018-01-16T13:27:00.439Z,2.17
2018-01-16T13:29:28.059Z,1.60
2018-01-16T13:31:55.564Z,2.27
2018-01-16T13:34:23.077Z,2.67
2018-01-16T13:36:50.616Z,2.13
2018-01-16T13:39:18.113Z,2.60
2018-01-16T13:41:45.735Z,2.10
2018-01-16T13:44:13.295Z,2.60
2018-01-16T13:46:40.793Z,3.23
2018-01-16T13:49:08.294Z,3.27
2018-01-16T13:51:35.871Z,2.30
2018-01-16T13:54:03.433Z,3.10
2018-01-16T13:56:31.024Z,4.40
2018-01-16T13:58:58.533Z,4.10
2018-01-16T14:01:26.049Z,2.70
2018-01-16T14:03:53.653Z,5.20
2018-01-16T14:06:21.159Z,3.07
2018-01-16T14:08:48.667Z,3.57
2018-01-16T14:11:16.162Z,3.13
2018-01-16T14:13:43.673Z,2.03
2018-01-16T14:16:11.276Z,3.43
2018-01-16T14:18:38.793Z,6.60
2018-01-16T14:21:06.324Z,2.73
2018-01-16T14:23:33.841Z,3.43
2018-01-16T14:26:01.408Z,4.00
2018-01-16T14:28:28.916Z,3.90
2018-01-16T14:30:56.416Z,2.67
2018-01-16T14:33:23.975Z,3.20
2018-01-16T14:35:51.476Z,2.97
2018-01-16T14:38:18.993Z,4.40
2018-01-16T14:40:46.574Z,3.43
2018-01-16T14:43:14.093Z,2.20
2018-01-16T14:45:41.618Z,3.83
2018-01-16T14:48:09.134Z,9.43
2018-01-16T14:50:36.627Z,4.23
2018-01-16T14:53:04.158Z,2.70
2018-01-16T14:55:31.657Z,1.80
2018-01-16T14:57:59.151Z,2.20
2018-01-16T15:00:26.656Z,2.50
2018-01-16T15:02:54.185Z,3.50
2018-01-16T15:05:21.694Z,4.70
2018-01-16T15:07:49.200Z,4.03
2018-01-16T15:10:16.708Z,3.10
2018-01-16T15:12:44.221Z,3.80
2018-01-16T15:15:11.725Z,4.87
2018-01-16T15:17:39.228Z,2.90
2018-01-16T15:20:06.772Z,2.77
2018-01-16T15:22:34.284Z,2.37
2018-01-16T15:25:01.818Z,2.77
2018-01-16T15:27:29.315Z,2.77
2018-01-16T15:29:56.816Z,3.47
2018-01-16T15:32:24.327Z,3.67
2018-01-16T15:34:51.836Z,3.03
2018-01-16T15:37:19.353Z,3.03
2018-01-16T15:39:46.966Z,3.40
2018-01-16T15:42:14.537Z,2.23
2018-01-16T15:44:42.100Z,2.57
2018-01-16T15:47:09.600Z,3.90
2018-01-16T15:49:37.099Z,3.57
2018-01-16T15:52:04.677Z,3.00
2018-01-16T15:54:32.212Z,3.33
2018-01-16T15:56:59.710Z,4.03
2018-01-16T15:59:27.218Z,4.37
2018-01-16T16:01:56.050Z,2.97
2018-01-16T16:04:24.596Z,3.17
2018-01-16T16:06:52.137Z,3.37
2018-01-16T16:09:19.656Z,2.70
2018-01-16T16:11:47.163Z,3.27
2018-01-16T16:14:14.674Z,2.40
2018-01-16T16:16:42.180Z,3.13
2018-01-16T16:19:09.687Z,2.70
2018-01-16T16:21:37.236Z,3.20
2018-01-16T16:24:04.740Z,2.30
2018-01-16T16:26:32.372Z,3.37
2018-01-16T16:28:59.915Z,2.93
2018-01-16T16:31:27.458Z,2.37
2018-01-16T16:33:55.036Z,2.67
2018-01-16T16:36:22.554Z,2.97
2018-01-16T16:38:50.052Z,2.87
2018-01-16T16:41:17.644Z,3.30
2018-01-16T16:43:45.145Z,3.10
2018-01-16T16:46:12.731Z,2.50
2018-01-16T16:48:40.291Z,2.90
2018-01-16T16:51:07.852Z,3.83
2018-01-16T16:53:35.415Z,2.60
2018-01-16T16:56:02.914Z,3.00
2018-01-16T16:58:30.421Z,2.60
2018-01-16T17:00:57.993Z,3.70
2018-01-16T17:03:25.494Z,2.60
2018-01-16T17:05:52.998Z,2.43
2018-01-16T17:08:20.505Z,2.47
2018-01-16T17:10:48.012Z,2.23
2018-01-16T17:13:15.517Z,2.33
2018-01-16T17:15:43.048Z,2.87
2018-01-16T17:18:10.580Z,2.40
2018-01-16T17:20:38.093Z,3.50
2018-01-16T17:23:05.600Z,4.17
2018-01-16T17:25:33.107Z,2.97
2018-01-16T17:28:00.612Z,2.93
2018-01-16T17:30:28.115Z,4.67
2018-01-16T17:32:55.624Z,3.30
2018-01-16T17:35:23.223Z,4.50
2018-01-16T17:37:50.742Z,4.47
2018-01-16T17:40:18.287Z,4.27
2018-01-16T17:42:45.796Z,4.33
2018-01-16T17:45:13.304Z,5.50
2018-01-16T17:47:40.809Z,6.13
2018-01-16T17:50:08.304Z,4.90
2018-01-16T17:52:35.845Z,4.80
2018-01-16T17:55:03.357Z,4.70
2018-01-16T17:57:30.868Z,5.53
2018-01-16T17:59:58.371Z,5.13
2018-01-16T18:02:25.867Z,5.43
2018-01-16T18:04:53.366Z,7.67
2018-01-16T18:07:20.867Z,5.87
2018-01-16T18:09:48.453Z,7.70
2018-01-16T18:12:15.977Z,9.13
2018-01-16T18:14:43.480Z,7.00
2018-01-16T18:17:10.995Z,6.97
2018-01-16T18:19:38.510Z,7.00
2018-01-16T18:22:06.021Z,8.00
2018-01-16T18:24:33.566Z,6.00
2018-01-16T18:27:01.076Z,9.73
2018-01-16T18:29:28.580Z,6.57
2018-01-16T18:31:56.179Z,6.17
2018-01-16T18:34:23.692Z,10.10
2018-01-16T18:36:51.238Z,8.20
2018-01-16T18:39:19.188Z,8.50
2018-01-16T18:41:46.873Z,6.43
2018-01-16T18:44:14.506Z,9.50
2018-01-16T18:46:42.022Z,6.33
2018-01-16T20:05:06.490Z,7.40
2018-01-16T20:07:33.985Z,13.17
2018-01-16T20:10:01.587Z,8.43
2018-01-16T20:12:29.112Z,10.37
2018-01-16T20:14:56.628Z,7.63
2018-01-16T20:17:24.137Z,13.40
2018-01-16T20:19:51.782Z,9.53
2018-01-16T20:22:19.365Z,6.77
2018-01-16T20:24:46.895Z,8.87
2018-01-16T20:27:14.413Z,7.87
2018-01-16T20:29:41.921Z,11.10
2018-01-16T20:32:09.544Z,13.20
2018-01-16T20:34:37.077Z,5.90
2018-01-16T20:37:04.582Z,7.97
2018-01-16T20:39:32.126Z,11.63
2018-01-16T20:41:59.652Z,8.00
2018-01-16T20:44:27.160Z,8.90
2018-01-16T20:46:54.786Z,11.27
2018-01-16T20:49:22.310Z,11.47
2018-01-16T20:51:49.807Z,8.93
2018-01-16T20:54:17.381Z,9.17
2018-01-16T20:56:44.893Z,13.53
2018-01-16T20:59:12.562Z,9.47
2018-01-16T21:01:40.146Z,12.50
2018-01-16T21:04:07.717Z,9.57
2018-01-16T21:06:35.248Z,10.23
2018-01-16T21:09:03.044Z,11.33
2018-01-16T21:11:30.562Z,9.77
2018-01-16T21:13:58.093Z,10.67
2018-01-16T21:16:27.214Z,11.53
2018-01-16T21:18:54.755Z,11.63
2018-01-16T21:21:22.264Z,12.30
2018-01-16T21:23:49.812Z,15.13
2018-01-16T21:26:17.411Z,10.23
2018-01-16T21:28:45.041Z,8.83
2018-01-16T21:31:12.593Z,10.07
2018-01-16T21:33:40.154Z,13.53
2018-01-16T21:36:07.662Z,13.57
2018-01-16T21:38:35.169Z,11.30
2018-01-16T21:41:02.751Z,9.37
2018-01-16T21:43:30.272Z,11.37
2018-01-16T21:45:57.788Z,11.63
2018-01-16T21:48:25.418Z,9.87
2018-01-16T21:50:52.933Z,10.47
2018-01-16T21:53:20.538Z,11.23
2018-01-16T21:55:48.099Z,13.63
2018-01-16T21:58:15.608Z,11.97
2018-01-16T22:00:43.227Z,11.80
2018-01-16T22:03:10.750Z,13.13
2018-01-16T22:05:38.258Z,8.87
2018-01-16T22:08:05.765Z,12.87
2018-01-16T22:10:33.289Z,11.53
2018-01-16T22:13:00.813Z,15.70
2018-01-16T22:15:28.381Z,11.50
2018-01-16T22:17:55.888Z,11.23
2018-01-16T22:20:23.398Z,9.73
2018-01-16T23:44:47.913Z,17.10
2018-01-16T23:47:15.465Z,13.80
2018-01-16T23:49:42.987Z,15.07
2018-01-16T23:52:10.491Z,14.03
2018-01-16T23:54:38.037Z,19.77
2018-01-16T23:57:05.571Z,12.87
2018-01-16T23:59:33.084Z,16.23
